10h38 EDT


 

Suivi/Infos de l'aéroport


-ou-


 

Suivi des vols en temps réelTradewind #590 ✈ 30-09-2013 ✈ KACK - KHPN

Thumbnail
Tradewind 590
GPD590 · "Goodspeed" (tous les vols)
Nantucket Memorial ()
Westchester County ()
09h06 EDT
09h52 EDT
Prévu: 08h30 EDT
Prévu: 09h15 EDT
Durée: 46 minutes
lundi, 30 septembre 2013
Statut A atterri il y a 46 semaines. (journal de vol & graphique)
Avion Pilatus PC-12 (monoturbopropulseur) (PC12/R – photos)
Vitesse Plan de vol: 250 kts (graphique)
Altitude Plan de vol: 10.000 Pieds (graphique)
Distance En ligne droite 306 km    Parcourue 308 km
Route MVY SEY V34 CREAM BDR BDR288 RYMES (Décoder)
JOURNAL DE L'ACTIVITE
Vous voulez une recherche complète sur l'historique de GPD590 depuis 1998? Achetez maintenant. Recevez-le dans l'heure.
Date Avion Provenance Destination Départ Arrivée Durée
20-08-2014 PC12/GNantucket Memorial ()Waterbury-Oxford () 10h19 EDT 11h02 EDT En vol
20-08-2014 PC12/GWestchester County ()Nantucket Memorial () 09h03 EDT 09h49 EDT 0:45
20-08-2014 PC12/GWaterbury-Oxford ()Westchester County () 07h50 EDT 08h07 EDT 0:17
18-08-2014 PC12Nantucket Memorial ()Teterboro () 10h37 EDT 11h27 EDT 0:50
18-08-2014 PC12Nantucket Memorial ()Teterboro () 07h12 EDT 08h03 EDT 0:51
18-08-2014 UnknownR PVD 262 51Nantucket Memorial () 09h42 UTC 06h11 EDT 0:28
17-08-2014 PC12Nantucket Memorial ()Teterboro () 20h14 EDT 21h07 EDT 0:53
17-08-2014 PC12Nantucket Memorial ()Teterboro () 16h51 EDT 17h39 EDT 0:48
17-08-2014 PC12Teterboro ()Nantucket Memorial () 14h57 EDT 15h37 EDT 0:39
17-08-2014 PC12Nantucket Memorial ()Teterboro () 13h25 EDT 14h18 EDT 0:53
17-08-2014 PC12/GGroton-New London ()Nantucket Memorial () 11h31 EDT 12h03 EDT 0:32
17-08-2014 UnknownEast Hampton ()Nantucket Memorial () 11h10 EDT 12h05 EDT 0:54
16-08-2014 PC12Nantucket Memorial ()Westchester County () 18h11 EDT 19h02 EDT 0:50
16-08-2014 PC12/AWestchester County ()Nantucket Memorial () 13h54 EDT 14h45 EDT 0:50
16-08-2014 PC12/GNantucket Memorial ()Westchester County () 12h03 EDT 12h51 EDT 0:48
16-08-2014 PC12/GWestchester County ()Nantucket Memorial () 08h56 EDT 09h46 EDT 0:50
15-08-2014 PC12Nantucket Memorial ()Waterbury-Oxford () 20h34 EDT 21h09 EDT 0:35
15-08-2014 PC12Teterboro ()Nantucket Memorial () 19h19 EDT 20h13 EDT 0:53
15-08-2014 PC12Nantucket Memorial ()Teterboro () 17h21 EDT 18h13 EDT 0:51
15-08-2014 PC12Teterboro ()Nantucket Memorial () 15h57 EDT 16h48 EDT 0:51
15-08-2014 PC12Nantucket Memorial ()Teterboro () 13h58 EDT 14h50 EDT 0:52
15-08-2014 PC12Teterboro ()Nantucket Memorial () 12h25 EDT 13h05 EDT 0:39
15-08-2014 PC12Nantucket Memorial ()Teterboro () 10h36 EDT 11h31 EDT 0:55
15-08-2014 PC12Teterboro ()Nantucket Memorial () 09h14 EDT 09h53 EDT 0:38
14-08-2014 PC12Nantucket Memorial ()Teterboro () 17h25 EDT 18h18 EDT 0:53
14-08-2014 PC12Teterboro ()Nantucket Memorial () 15h40 EDT 16h18 EDT 0:37
14-08-2014 PC12Nantucket Memorial ()Teterboro () 13h25 EDT 14h15 EDT 0:50
14-08-2014 PC12Teterboro ()Nantucket Memorial () 12h19 EDT 13h00 EDT 0:41
14-08-2014 PC12Nantucket Memorial ()Teterboro () 10h34 EDT 11h28 EDT 0:54
14-08-2014 PC12Teterboro ()Nantucket Memorial () 09h20 EDT 10h02 EDT 0:42
12-08-2014 PC12/GNantucket Memorial ()Westchester County () 18h00 EDT 18h51 EDT 0:51
12-08-2014 PC12/GInt'l Newark Liberty ()Nantucket Memorial () 14h30 EDT 14h38 EDT (?) 0:07
12-08-2014 PC12/GTeterboro ()Nantucket Memorial () 14h24 EDT 15h23 EDT 0:58
12-08-2014 PC12/GNantucket Memorial ()Teterboro () 12h11 EDT 13h14 EDT 1:03
12-08-2014 PC12/GWestchester County ()Nantucket Memorial () 09h03 EDT 09h46 EDT 0:43
12-08-2014 PC12/GWaterbury-Oxford ()Westchester County () 08h00 EDT 08h20 EDT 0:20
11-08-2014 PC12/GNantucket Memorial ()Waterbury-Oxford () 19h40 EDT 20h18 EDT 0:38
11-08-2014 PC12/GTeterboro ()Nantucket Memorial () 18h26 EDT 19h18 EDT 0:52
11-08-2014 PC12/GNantucket Memorial ()Teterboro () 14h54 EDT 15h45 EDT 0:51
11-08-2014 PC12/GTeterboro ()Nantucket Memorial () 12h10 EDT 13h05 EDT 0:55
11-08-2014 PC12/GNantucket Memorial ()Teterboro () 09h21 EDT 10h14 EDT 0:53
11-08-2014 PC12/GTeterboro ()Nantucket Memorial () 07h55 EDT 08h30 EDT 0:35
11-08-2014 PC12/GNantucket Memorial ()Teterboro () 06h11 EDT 07h07 EDT 0:56
11-08-2014 PC12/GWaterbury-Oxford ()Nantucket Memorial () 04h43 EDT 05h22 EDT 0:39
10-08-2014 PC12Nantucket Memorial ()Teterboro () 20h07 EDT 21h01 EDT 0:54
10-08-2014 PC12Teterboro ()Nantucket Memorial () 18h34 EDT 19h20 EDT 0:46
10-08-2014 PC12Nantucket Memorial ()Teterboro () 16h44 EDT 17h33 EDT 0:49
10-08-2014 PC12/GMartha's Vineyard ()Nantucket Memorial () 14h56 EDT 15h15 EDT 0:19
10-08-2014 PC12/GWestchester County ()Martha's Vineyard () 13h41 EDT 14h30 EDT 0:49
08-08-2014 PC12/GNantucket Memorial ()Waterbury-Oxford () 20h01 EDT 20h43 EDT 0:42
08-08-2014 PC12/GWestchester County ()Nantucket Memorial () 19h01 EDT 19h41 EDT (?) 0:39
Les membres inscrits (l'inscription est gratuite et facile!) voient 4 months d'historique. S'inscrire